createdAt,value
2022-12-16T00:01:09.870Z,25.10
2022-12-16T00:03:41.818Z,26.03
2022-12-16T00:06:11.485Z,25.70
2022-12-16T00:08:40.581Z,25.47
2022-12-16T00:11:09.804Z,23.90
2022-12-16T00:13:40.251Z,26.10
2022-12-16T00:16:09.712Z,26.17
2022-12-16T00:18:37.948Z,25.93
2022-12-16T00:21:06.420Z,25.23
2022-12-16T00:23:36.706Z,26.90
2022-12-16T00:26:05.122Z,27.10
2022-12-16T00:28:33.526Z,25.93
2022-12-16T00:31:01.703Z,26.93
2022-12-16T00:33:30.888Z,26.17
2022-12-16T00:35:59.470Z,26.63
2022-12-16T00:38:28.466Z,25.07
2022-12-16T00:40:58.074Z,25.10
2022-12-16T00:43:26.302Z,26.10
2022-12-16T00:45:54.671Z,26.53
2022-12-16T00:48:23.391Z,25.40
2022-12-16T00:50:52.116Z,26.07
2022-12-16T00:53:20.460Z,26.30
2022-12-16T00:55:48.735Z,25.47
2022-12-16T00:58:18.300Z,25.17
2022-12-16T01:00:46.717Z,24.83
2022-12-16T01:03:21.102Z,25.43
2022-12-16T01:05:49.751Z,26.40
2022-12-16T01:08:18.248Z,25.20
2022-12-16T01:10:51.942Z,25.57
2022-12-16T01:13:22.248Z,25.83
2022-12-16T01:15:50.506Z,25.30
2022-12-16T01:18:18.947Z,25.97
2022-12-16T01:20:47.218Z,26.27
2022-12-16T01:23:15.488Z,25.13
2022-12-16T01:25:43.749Z,25.10
2022-12-16T01:28:12.012Z,25.23
2022-12-16T01:30:41.759Z,24.80
2022-12-16T01:33:11.058Z,25.83
2022-12-16T01:35:55.615Z,26.37
2022-12-16T01:38:24.709Z,25.00
2022-12-16T01:40:55.094Z,26.73
2022-12-16T01:43:26.095Z,23.47
2022-12-16T01:45:56.991Z,26.10
2022-12-16T01:48:32.052Z,25.47
2022-12-16T01:51:03.330Z,26.77
2022-12-16T01:53:32.143Z,24.97
2022-12-16T01:56:01.969Z,25.60
2022-12-16T01:58:31.920Z,25.37
2022-12-16T02:01:03.608Z,25.00
2022-12-16T02:03:34.309Z,24.50
2022-12-16T02:06:03.181Z,25.53
2022-12-16T02:08:31.640Z,25.47
2022-12-16T02:11:14.764Z,25.87
2022-12-16T02:13:51.297Z,26.23
2022-12-16T02:16:23.977Z,26.63
2022-12-16T02:18:57.252Z,25.57
2022-12-16T02:21:43.468Z,26.27
2022-12-16T02:24:29.385Z,25.83
2022-12-16T02:27:21.225Z,25.97
2022-12-16T02:30:07.579Z,26.83
2022-12-16T02:32:42.908Z,25.63
2022-12-16T02:35:12.303Z,26.40
2022-12-16T02:37:42.971Z,26.43
2022-12-16T02:40:16.000Z,26.73
2022-12-16T02:42:47.468Z,25.80
2022-12-16T02:45:17.751Z,26.20
2022-12-16T02:47:48.061Z,26.73
2022-12-16T02:50:19.316Z,25.93
2022-12-16T02:52:47.815Z,26.97
2022-12-16T02:55:16.592Z,25.90
2022-12-16T02:58:00.887Z,26.23
2022-12-16T03:00:30.887Z,26.53
2022-12-16T03:03:03.259Z,26.17
2022-12-16T03:05:33.769Z,26.53
2022-12-16T03:08:03.753Z,25.53
2022-12-16T03:10:33.535Z,25.80
2022-12-16T03:13:03.223Z,26.33
2022-12-16T03:15:33.749Z,25.60
2022-12-16T03:18:04.537Z,25.33
2022-12-16T03:20:36.514Z,24.90
2022-12-16T03:23:06.800Z,24.97
2022-12-16T03:25:36.649Z,25.70
2022-12-16T03:28:08.610Z,25.10
2022-12-16T03:30:38.412Z,23.93
2022-12-16T03:33:10.865Z,25.13
2022-12-16T03:35:41.350Z,23.57
2022-12-16T03:38:11.956Z,24.13
2022-12-16T03:40:41.311Z,25.00
2022-12-16T03:43:10.513Z,24.87
2022-12-16T03:45:40.395Z,25.47
2022-12-16T03:48:11.373Z,25.23
2022-12-16T03:50:40.605Z,24.77
2022-12-16T03:53:09.258Z,24.67
2022-12-16T03:55:37.501Z,24.37
2022-12-16T03:58:05.827Z,24.37
2022-12-16T04:00:34.097Z,23.67
2022-12-16T04:03:02.598Z,24.77
2022-12-16T04:05:32.427Z,23.77
2022-12-16T04:08:02.251Z,24.63
2022-12-16T04:10:49.338Z,23.87
2022-12-16T04:13:35.799Z,22.43
2022-12-16T04:16:22.125Z,23.07
2022-12-16T04:19:08.392Z,25.00
2022-12-16T04:21:55.956Z,22.53
2022-12-16T04:24:26.862Z,25.03
2022-12-16T04:27:15.633Z,23.67
2022-12-16T04:29:58.413Z,25.23
2022-12-16T04:32:26.854Z,24.33
2022-12-16T04:34:54.123Z,22.60
2022-12-16T04:37:41.341Z,24.33
2022-12-16T04:40:27.679Z,25.37
2022-12-16T04:43:13.670Z,24.87
2022-12-16T04:45:59.376Z,22.47
2022-12-16T04:48:45.266Z,23.67
2022-12-16T04:51:31.063Z,23.83
2022-12-16T04:54:18.514Z,23.87
2022-12-16T04:57:04.530Z,23.97
2022-12-16T04:59:50.640Z,23.17
2022-12-16T05:02:36.911Z,23.80
2022-12-16T05:05:22.808Z,22.83
2022-12-16T05:08:08.714Z,24.07
2022-12-16T05:10:55.897Z,24.57
2022-12-16T05:13:41.866Z,25.17
2022-12-16T05:16:27.980Z,23.30
2022-12-16T05:19:14.143Z,22.90
2022-12-16T05:22:00.106Z,24.57
2022-12-16T05:24:51.230Z,24.80
2022-12-16T05:27:39.888Z,23.37
2022-12-16T05:30:30.544Z,23.13
2022-12-16T05:33:19.377Z,23.43
2022-12-16T05:36:05.382Z,24.47
2022-12-16T05:38:51.415Z,23.90
2022-12-16T05:41:37.547Z,24.57
2022-12-16T05:44:24.911Z,24.10
2022-12-16T05:47:11.041Z,23.70
2022-12-16T05:49:56.906Z,23.03
2022-12-16T05:52:43.020Z,24.17
2022-12-16T05:55:33.736Z,22.93
2022-12-16T05:58:20.035Z,22.77
2022-12-16T06:01:07.277Z,23.60
2022-12-16T06:03:53.362Z,24.87
2022-12-16T06:06:39.427Z,25.60
2022-12-16T06:09:25.255Z,24.90
2022-12-16T06:12:11.318Z,26.90
2022-12-16T06:14:56.993Z,27.07
2022-12-16T06:17:44.149Z,26.60
2022-12-16T06:20:30.249Z,25.17
2022-12-16T06:23:17.897Z,24.63
2022-12-16T06:26:07.302Z,25.33
2022-12-16T06:28:55.839Z,25.23
2022-12-16T06:31:42.067Z,25.50
2022-12-16T06:34:29.495Z,26.57
2022-12-16T06:37:15.463Z,28.27
2022-12-16T06:40:01.359Z,24.60
2022-12-16T06:42:47.130Z,25.80
2022-12-16T06:45:35.107Z,25.40
2022-12-16T06:48:21.417Z,26.50
2022-12-16T06:51:09.045Z,27.17
2022-12-16T06:53:54.852Z,45.50
2022-12-16T06:56:40.934Z,44.33
2022-12-16T06:59:26.893Z,38.20
2022-12-16T07:02:13.104Z,40.47
2022-12-16T07:04:59.467Z,37.37
2022-12-16T07:07:47.233Z,35.60
2022-12-16T07:10:33.409Z,26.93
2022-12-16T07:13:15.908Z,26.03
2022-12-16T07:16:01.915Z,29.73
2022-12-16T07:18:47.895Z,33.93
2022-12-16T07:21:34.022Z,31.87
2022-12-16T07:24:20.521Z,29.47
2022-12-16T07:27:06.481Z,31.13
2022-12-16T07:29:52.233Z,30.87
2022-12-16T07:32:38.799Z,33.23
2022-12-16T07:35:24.890Z,33.30
2022-12-16T07:38:22.423Z,28.70
2022-12-16T07:41:09.523Z,33.67
2022-12-16T07:43:55.291Z,33.10
2022-12-16T07:46:46.431Z,36.67
2022-12-16T07:49:32.552Z,35.47
2022-12-16T07:52:18.392Z,33.77
2022-12-16T07:55:04.150Z,36.67
2022-12-16T07:57:51.637Z,35.47
2022-12-16T08:00:38.113Z,36.37
2022-12-16T08:03:23.897Z,36.27
2022-12-16T08:06:10.111Z,37.30
2022-12-16T08:08:56.175Z,37.87
2022-12-16T08:11:42.198Z,38.13
2022-12-16T08:14:29.458Z,39.97
2022-12-16T08:17:15.612Z,35.87
2022-12-16T08:20:09.797Z,37.30
2022-12-16T08:22:55.946Z,36.47
2022-12-16T08:25:50.330Z,36.37
2022-12-16T08:28:37.086Z,36.43
2022-12-16T08:31:24.695Z,36.27
2022-12-16T08:34:10.603Z,35.67
2022-12-16T08:36:56.654Z,36.23
2022-12-16T08:39:42.750Z,36.83
2022-12-16T08:42:28.991Z,35.83
2022-12-16T08:45:15.155Z,36.03
2022-12-16T08:48:02.769Z,36.90
2022-12-16T08:50:48.457Z,36.23
2022-12-16T08:53:35.057Z,36.20
2022-12-16T08:56:21.004Z,37.33
2022-12-16T08:59:07.092Z,35.23
2022-12-16T09:01:55.614Z,36.57
2022-12-16T09:04:43.259Z,37.77
2022-12-16T09:07:29.013Z,35.50
2022-12-16T09:10:15.246Z,35.53
2022-12-16T09:13:01.184Z,34.47
2022-12-16T09:15:47.261Z,34.93
2022-12-16T09:18:33.365Z,34.10
2022-12-16T09:21:20.618Z,32.33
2022-12-16T09:24:06.551Z,34.00
2022-12-16T09:26:53.082Z,31.70
2022-12-16T09:29:43.576Z,32.87
2022-12-16T09:32:31.021Z,33.10
2022-12-16T09:35:16.984Z,31.70
2022-12-16T09:38:06.753Z,31.33
2022-12-16T09:40:53.118Z,33.10
2022-12-16T09:43:50.612Z,30.70
2022-12-16T09:46:40.761Z,29.10
2022-12-16T09:49:32.725Z,29.93
2022-12-16T09:52:19.087Z,30.73
2022-12-16T09:55:07.211Z,29.47
2022-12-16T09:57:54.592Z,29.10
2022-12-16T10:00:42.240Z,28.97
2022-12-16T10:03:34.448Z,30.37
2022-12-16T10:06:22.982Z,29.37
2022-12-16T10:09:11.903Z,29.53
2022-12-16T10:12:03.482Z,28.83
2022-12-16T10:14:53.755Z,27.27
2022-12-16T10:17:41.978Z,27.47
2022-12-16T10:20:33.764Z,27.47
2022-12-16T10:23:24.553Z,28.67
2022-12-16T10:26:12.464Z,27.73
2022-12-16T10:29:04.722Z,28.20
2022-12-16T10:31:50.525Z,26.20
2022-12-16T10:34:38.939Z,26.10
2022-12-16T10:37:24.979Z,26.10
2022-12-16T10:40:12.081Z,26.67
2022-12-16T10:43:02.151Z,26.33
2022-12-16T10:45:52.469Z,25.53
2022-12-16T10:48:50.060Z,25.10
2022-12-16T10:51:40.573Z,25.07
2022-12-16T10:54:36.010Z,25.23
2022-12-16T10:57:24.615Z,26.50
2022-12-16T11:00:09.867Z,24.90
2022-12-16T11:02:57.187Z,24.03
2022-12-16T11:05:49.386Z,25.30
2022-12-16T11:08:43.021Z,25.50
2022-12-16T11:11:32.668Z,24.17
2022-12-16T11:14:36.442Z,24.27
2022-12-16T11:17:33.614Z,23.00
2022-12-16T11:20:27.813Z,24.23
2022-12-16T11:23:26.963Z,24.50
2022-12-16T11:26:27.163Z,24.63
2022-12-16T11:29:22.312Z,23.73
2022-12-16T11:32:09.198Z,24.70
2022-12-16T11:34:55.873Z,23.63
2022-12-16T11:37:43.860Z,24.47
2022-12-16T11:40:33.463Z,22.83
2022-12-16T11:43:20.394Z,24.63
2022-12-16T11:46:06.758Z,23.33
2022-12-16T11:48:56.322Z,24.83
2022-12-16T11:51:44.217Z,23.87
2022-12-16T11:54:34.766Z,24.53
2022-12-16T11:57:22.196Z,25.10
2022-12-16T12:00:11.501Z,23.57
2022-12-16T12:03:01.266Z,23.63
2022-12-16T12:05:48.847Z,22.93
2022-12-16T12:08:37.812Z,23.53
2022-12-16T12:11:28.853Z,23.90
2022-12-16T12:14:20.583Z,24.93
2022-12-16T12:17:14.566Z,24.20
2022-12-16T12:20:04.128Z,24.37
2022-12-16T12:22:53.913Z,24.30
2022-12-16T12:25:42.413Z,24.13
2022-12-16T12:28:34.308Z,22.67
2022-12-16T12:31:23.078Z,22.83
2022-12-16T12:34:15.461Z,24.67
2022-12-16T12:37:03.842Z,23.70
2022-12-16T12:39:52.722Z,23.47
2022-12-16T12:42:49.617Z,22.50
2022-12-16T12:45:47.345Z,22.23
2022-12-16T12:48:35.940Z,24.10
2022-12-16T12:51:26.337Z,23.50
2022-12-16T12:54:16.321Z,24.63
2022-12-16T12:57:05.862Z,22.70
2022-12-16T13:00:01.828Z,24.10
2022-12-16T13:02:52.748Z,24.27
2022-12-16T13:05:39.288Z,22.63
2022-12-16T13:08:43.588Z,24.33
2022-12-16T13:11:35.478Z,23.93
2022-12-16T13:14:21.503Z,23.73
2022-12-16T13:17:25.986Z,23.87
2022-12-16T13:20:14.611Z,23.70
2022-12-16T13:23:01.018Z,24.53
2022-12-16T13:25:56.236Z,24.80
2022-12-16T13:28:44.316Z,24.33
2022-12-16T13:31:30.517Z,24.50
2022-12-16T13:34:18.076Z,23.13
2022-12-16T13:37:12.436Z,24.87
2022-12-16T13:40:00.188Z,26.13
2022-12-16T13:43:00.575Z,26.67
2022-12-16T13:45:51.312Z,25.87
2022-12-16T13:49:07.487Z,27.77
2022-12-16T13:52:26.203Z,28.63
2022-12-16T13:55:24.374Z,31.70
2022-12-16T13:58:14.725Z,29.70
2022-12-16T14:01:01.387Z,28.80
2022-12-16T14:03:53.903Z,28.37
2022-12-16T14:06:43.375Z,28.40
2022-12-16T14:09:35.117Z,30.50
2022-12-16T14:12:24.907Z,30.27
2022-12-16T14:15:14.261Z,31.30
2022-12-16T14:18:03.304Z,32.03
2022-12-16T14:20:51.740Z,32.70
2022-12-16T14:23:56.515Z,29.07
2022-12-16T14:26:43.262Z,28.97
2022-12-16T14:29:35.042Z,27.57
2022-12-16T14:32:26.433Z,30.03
2022-12-16T14:35:20.753Z,30.23
2022-12-16T14:38:17.958Z,29.60
2022-12-16T14:41:09.677Z,29.80
2022-12-16T14:43:55.744Z,29.17
2022-12-16T14:46:47.378Z,30.10
2022-12-16T14:49:37.820Z,30.67
2022-12-16T14:52:30.650Z,29.97
2022-12-16T14:55:16.558Z,31.17
2022-12-16T14:58:02.588Z,29.70
2022-12-16T15:00:48.690Z,31.17
2022-12-16T15:03:40.521Z,34.67
2022-12-16T15:06:30.825Z,33.17
2022-12-16T15:09:20.461Z,33.10
2022-12-16T15:12:07.380Z,32.13
2022-12-16T15:14:54.951Z,32.50
2022-12-16T15:17:43.288Z,33.07
2022-12-16T15:20:34.545Z,33.10
2022-12-16T15:23:20.465Z,30.73
2022-12-16T15:26:09.367Z,29.97
2022-12-16T15:28:59.011Z,31.10
2022-12-16T15:31:46.765Z,30.83
2022-12-16T15:34:46.280Z,30.77
2022-12-16T15:37:43.860Z,31.70
2022-12-16T15:40:40.816Z,32.00
2022-12-16T15:43:39.560Z,34.57
2022-12-16T15:46:25.366Z,34.43
2022-12-16T15:49:11.585Z,35.73
2022-12-16T15:52:03.320Z,35.27
2022-12-16T15:54:51.063Z,37.13
2022-12-16T15:57:44.510Z,40.47
2022-12-16T16:00:38.846Z,37.23
2022-12-16T16:03:25.034Z,35.43
2022-12-16T16:06:11.181Z,33.10
2022-12-16T16:08:57.027Z,34.70
2022-12-16T16:11:52.838Z,37.73
2022-12-16T16:14:39.024Z,39.70
2022-12-16T16:17:29.907Z,35.70
2022-12-16T16:20:15.567Z,35.90
2022-12-16T16:22:57.792Z,35.27
2022-12-16T16:25:44.277Z,33.37
2022-12-16T16:28:31.456Z,32.57
2022-12-16T16:31:17.495Z,33.23
2022-12-16T16:34:03.273Z,32.77
2022-12-16T16:37:03.814Z,34.13
2022-12-16T16:39:49.788Z,35.93
2022-12-16T16:42:35.845Z,33.83
2022-12-16T16:45:23.603Z,34.17
2022-12-16T16:48:09.575Z,36.87
2022-12-16T16:50:55.584Z,35.77
2022-12-16T16:53:41.540Z,38.07
2022-12-16T16:56:28.553Z,35.23
2022-12-16T16:59:14.593Z,35.93
2022-12-16T17:02:02.339Z,36.37
2022-12-16T17:04:48.185Z,38.13
2022-12-16T17:07:34.383Z,38.10
2022-12-16T17:10:20.251Z,37.60
2022-12-16T17:13:04.760Z,36.63
2022-12-16T17:15:57.944Z,37.20
2022-12-16T17:18:50.547Z,35.23
2022-12-16T17:21:38.009Z,35.73
2022-12-16T17:24:24.111Z,37.27
2022-12-16T17:27:09.853Z,36.77
2022-12-16T17:29:55.960Z,36.73
2022-12-16T17:32:41.793Z,36.03
2022-12-16T17:35:30.400Z,36.43
2022-12-16T17:38:16.660Z,36.43
2022-12-16T17:41:17.025Z,37.50
2022-12-16T17:44:02.999Z,37.37
2022-12-16T17:46:49.104Z,37.93
2022-12-16T17:49:35.107Z,37.40
2022-12-16T17:52:22.607Z,36.17
2022-12-16T17:55:08.776Z,36.17
2022-12-16T17:57:55.002Z,35.77
2022-12-16T18:00:41.409Z,37.10
2022-12-16T18:03:27.190Z,35.43
2022-12-16T18:06:15.725Z,36.47
2022-12-16T18:09:03.147Z,34.20
2022-12-16T18:11:49.417Z,34.80
2022-12-16T18:14:36.544Z,31.20
2022-12-16T18:17:22.371Z,32.53
2022-12-16T18:20:08.228Z,31.87
2022-12-16T18:22:54.220Z,34.27
2022-12-16T18:25:41.835Z,32.87
2022-12-16T18:28:27.553Z,31.67
2022-12-16T18:31:13.455Z,36.37
2022-12-16T18:33:59.339Z,37.03
2022-12-16T18:36:45.405Z,36.63
2022-12-16T18:39:31.419Z,34.97
2022-12-16T18:42:19.022Z,36.43
2022-12-16T18:45:04.857Z,37.40
2022-12-16T18:47:56.176Z,41.63
2022-12-16T18:50:42.319Z,40.83
2022-12-16T18:53:28.390Z,45.47
2022-12-16T18:56:20.916Z,47.07
2022-12-16T18:59:08.118Z,48.40
2022-12-16T19:01:54.325Z,46.77
2022-12-16T19:04:40.253Z,45.63
2022-12-16T19:07:26.193Z,47.63
2022-12-16T19:10:12.217Z,46.77
2022-12-16T19:12:58.308Z,46.23
2022-12-16T19:15:45.691Z,50.03
2022-12-16T19:18:31.951Z,45.00
2022-12-16T19:21:17.598Z,44.93
2022-12-16T19:24:03.692Z,44.93
2022-12-16T19:26:49.785Z,44.53
2022-12-16T19:29:50.223Z,45.47
2022-12-16T19:32:37.891Z,43.93
2022-12-16T19:35:26.854Z,46.00
2022-12-16T19:38:12.746Z,43.13
2022-12-16T19:40:59.159Z,40.47
2022-12-16T19:43:45.094Z,42.33
2022-12-16T19:46:31.159Z,41.27
2022-12-16T19:49:18.875Z,43.07
2022-12-16T19:52:04.994Z,42.50
2022-12-16T19:54:51.786Z,40.47
2022-12-16T19:57:37.982Z,41.53
2022-12-16T20:00:24.433Z,41.53
2022-12-16T20:03:07.132Z,41.03
2022-12-16T20:05:55.148Z,38.77
2022-12-16T20:08:42.337Z,39.20
2022-12-16T20:11:28.757Z,41.50
2022-12-16T20:14:15.445Z,41.10
2022-12-16T20:17:01.690Z,41.67
2022-12-16T20:19:47.703Z,39.87
2022-12-16T20:22:36.409Z,39.17
2022-12-16T20:25:24.451Z,43.23
2022-12-16T20:28:10.618Z,65.27
2022-12-16T20:31:04.747Z,57.87
2022-12-16T20:33:51.062Z,49.33
2022-12-16T20:36:38.023Z,55.20
2022-12-16T20:39:29.309Z,46.00
2022-12-16T20:42:15.131Z,50.60
2022-12-16T20:45:01.388Z,50.77
2022-12-16T20:47:49.630Z,49.17
2022-12-16T20:50:44.253Z,48.43
2022-12-16T20:53:26.533Z,50.03
2022-12-16T20:56:13.876Z,47.30
2022-12-16T20:59:14.347Z,49.77
2022-12-16T21:02:22.102Z,46.00
2022-12-16T21:05:06.163Z,46.17
2022-12-16T21:07:52.264Z,47.80
2022-12-16T21:10:39.435Z,47.33
2022-12-16T21:13:27.046Z,46.87
2022-12-16T21:16:13.203Z,42.27
2022-12-16T21:18:59.071Z,40.60
2022-12-16T21:21:45.268Z,35.43
2022-12-16T21:24:31.355Z,33.53
2022-12-16T21:27:17.375Z,32.37
2022-12-16T21:30:04.719Z,30.87
2022-12-16T21:32:50.939Z,30.00
2022-12-16T21:35:39.695Z,29.07
2022-12-16T21:38:27.663Z,28.53
2022-12-16T21:41:13.882Z,26.73
2022-12-16T21:44:00.060Z,27.97
2022-12-16T21:46:47.627Z,26.43
2022-12-16T21:49:33.755Z,26.07
2022-12-16T21:52:19.839Z,25.60
2022-12-16T21:55:05.949Z,27.00
2022-12-16T21:57:51.894Z,26.40
2022-12-16T22:00:39.731Z,26.40
2022-12-16T22:03:26.959Z,27.20
2022-12-16T22:06:12.865Z,27.13
2022-12-16T22:08:58.591Z,26.53
2022-12-16T22:11:44.665Z,26.47
2022-12-16T22:14:30.524Z,27.90
2022-12-16T22:17:16.613Z,29.33
2022-12-16T22:20:04.069Z,32.30
2022-12-16T22:22:49.946Z,33.17
2022-12-16T22:25:36.226Z,32.03
2022-12-16T22:28:22.171Z,31.97
2022-12-16T22:31:15.612Z,33.07
2022-12-16T22:34:02.158Z,33.43
2022-12-16T22:36:51.611Z,31.80
2022-12-16T22:39:44.413Z,32.93
2022-12-16T22:42:30.759Z,31.23
2022-12-16T22:45:16.566Z,30.03
2022-12-16T22:48:02.564Z,31.07
2022-12-16T22:50:50.615Z,32.73
2022-12-16T22:53:38.178Z,32.13
2022-12-16T22:56:24.314Z,32.87
2022-12-16T22:59:10.196Z,32.10
2022-12-16T23:05:02.473Z,32.87
2022-12-16T23:07:48.489Z,34.73
2022-12-16T23:10:36.117Z,33.93
2022-12-16T23:13:22.346Z,31.30
2022-12-16T23:16:08.377Z,29.77
2022-12-16T23:18:56.472Z,33.33
2022-12-16T23:21:43.043Z,32.23
2022-12-16T23:24:29.260Z,33.47
2022-12-16T23:27:16.901Z,37.50
2022-12-16T23:30:02.994Z,36.47
2022-12-16T23:32:49.350Z,35.53
2022-12-16T23:35:51.598Z,34.67
2022-12-16T23:38:38.064Z,38.40
2022-12-16T23:41:23.956Z,38.33
2022-12-16T23:44:11.625Z,34.93
2022-12-16T23:46:57.680Z,35.83
2022-12-16T23:49:43.518Z,33.67
2022-12-16T23:52:29.439Z,33.80
2022-12-16T23:55:15.616Z,33.73
2022-12-16T23:58:01.682Z,34.30
